createdAt,value
2018-09-18T00:01:27.192Z,99.90
2018-09-18T00:03:56.001Z,99.90
2018-09-18T00:06:24.816Z,99.90
2018-09-18T00:08:53.631Z,99.90
2018-09-18T00:11:22.442Z,99.90
2018-09-18T00:13:51.281Z,99.90
2018-09-18T00:16:20.083Z,99.90
2018-09-18T00:18:48.884Z,99.90
2018-09-18T00:21:17.716Z,99.90
2018-09-18T00:23:46.515Z,99.90
2018-09-18T00:26:15.320Z,99.90
2018-09-18T00:28:44.179Z,99.90
2018-09-18T00:31:12.979Z,99.90
2018-09-18T00:33:41.843Z,99.90
2018-09-18T00:36:10.724Z,99.90
2018-09-18T00:38:39.540Z,99.90
2018-09-18T00:41:08.325Z,99.90
2018-09-18T00:43:37.123Z,99.90
2018-09-18T00:46:05.905Z,99.90
2018-09-18T00:48:34.723Z,99.90
2018-09-18T00:51:03.503Z,99.90
2018-09-18T00:53:32.311Z,99.90
2018-09-18T00:56:01.101Z,99.90
2018-09-18T00:58:29.908Z,99.90
2018-09-18T01:00:58.702Z,99.90
2018-09-18T01:03:27.504Z,99.90
2018-09-18T01:05:56.295Z,99.90
2018-09-18T01:08:25.135Z,99.90
2018-09-18T01:10:53.960Z,99.90
2018-09-18T01:13:22.763Z,99.90
2018-09-18T01:15:51.655Z,99.90
2018-09-18T01:18:20.499Z,99.90
2018-09-18T01:20:49.299Z,99.90
2018-09-18T01:23:18.088Z,99.90
2018-09-18T01:25:46.921Z,99.90
2018-09-18T01:28:15.703Z,99.90
2018-09-18T01:30:44.556Z,99.90
2018-09-18T01:33:13.374Z,99.90
2018-09-18T01:35:42.193Z,99.90
2018-09-18T01:38:10.967Z,99.90
2018-09-18T01:40:39.780Z,99.90
2018-09-18T01:43:09.655Z,99.90
2018-09-18T01:45:38.536Z,99.90
2018-09-18T01:48:07.427Z,99.90
2018-09-18T01:50:36.279Z,99.90
2018-09-18T01:53:05.151Z,99.90
2018-09-18T01:55:34.782Z,99.90
2018-09-18T01:58:03.588Z,99.90
2018-09-18T02:00:32.402Z,99.90
2018-09-18T02:03:01.244Z,99.90
2018-09-18T02:05:30.170Z,99.90
2018-09-18T02:07:58.951Z,99.90
2018-09-18T02:10:27.735Z,99.90
2018-09-18T02:12:56.560Z,99.90
2018-09-18T02:15:25.368Z,99.90
2018-09-18T02:17:54.154Z,99.90
2018-09-18T02:20:22.975Z,99.90
2018-09-18T02:22:51.772Z,99.90
2018-09-18T02:25:20.570Z,99.90
2018-09-18T02:27:49.384Z,99.90
2018-09-18T02:30:18.167Z,99.90
2018-09-18T02:32:47.015Z,99.90
2018-09-18T02:35:15.783Z,99.90
2018-09-18T02:37:44.602Z,99.90
2018-09-18T02:40:13.384Z,99.90
2018-09-18T02:42:42.276Z,99.90
2018-09-18T02:45:11.054Z,99.90
2018-09-18T02:47:39.859Z,99.90
2018-09-18T02:50:08.648Z,99.90
2018-09-18T02:52:37.543Z,99.90
2018-09-18T02:55:06.347Z,99.90
2018-09-18T02:57:35.180Z,99.90
2018-09-18T03:00:04.076Z,99.90
2018-09-18T03:02:32.936Z,99.90
2018-09-18T03:05:01.716Z,99.90
2018-09-18T03:07:30.552Z,99.90
2018-09-18T03:09:59.333Z,99.90
2018-09-18T03:12:28.146Z,99.90
2018-09-18T03:14:56.949Z,99.90
2018-09-18T03:17:25.711Z,99.90
2018-09-18T03:19:54.491Z,99.90
2018-09-18T03:22:23.297Z,99.90
2018-09-18T03:24:52.192Z,99.90
2018-09-18T03:27:21.036Z,99.90
2018-09-18T03:29:49.843Z,99.90
2018-09-18T03:32:18.642Z,99.90
2018-09-18T03:34:47.430Z,99.90
2018-09-18T03:37:16.228Z,99.90
2018-09-18T03:39:45.023Z,99.90
2018-09-18T03:42:13.830Z,99.90
2018-09-18T03:44:42.729Z,99.90
2018-09-18T03:47:11.520Z,99.90
2018-09-18T03:49:40.412Z,99.90
2018-09-18T03:52:09.256Z,99.90
2018-09-18T03:54:38.027Z,99.90
2018-09-18T03:57:08.566Z,99.90
2018-09-18T03:59:37.362Z,99.90
2018-09-18T04:02:06.146Z,99.90
2018-09-18T04:04:34.994Z,99.90
2018-09-18T04:07:03.799Z,99.90
2018-09-18T04:09:32.595Z,99.90
2018-09-18T04:12:01.387Z,99.90
2018-09-18T04:14:30.341Z,99.90
2018-09-18T04:16:59.150Z,99.90
2018-09-18T04:19:27.951Z,99.90
2018-09-18T04:21:56.723Z,99.90
2018-09-18T04:24:25.540Z,99.90
2018-09-18T04:26:54.324Z,99.90
2018-09-18T04:29:23.497Z,99.90
2018-09-18T04:31:52.276Z,99.90
2018-09-18T04:34:21.061Z,99.90
2018-09-18T04:36:49.853Z,99.90
2018-09-18T04:39:18.631Z,99.90
2018-09-18T04:41:47.423Z,99.90
2018-09-18T04:44:16.203Z,99.90
2018-09-18T04:46:45.093Z,99.90
2018-09-18T04:49:14.039Z,99.90
2018-09-18T04:51:42.891Z,99.90
2018-09-18T04:54:11.700Z,99.90
2018-09-18T04:56:40.768Z,99.90
2018-09-18T04:59:09.564Z,99.90
2018-09-18T05:01:38.389Z,99.90
2018-09-18T05:04:07.175Z,99.90
2018-09-18T05:06:36.041Z,99.90
2018-09-18T05:09:07.305Z,99.90
2018-09-18T05:11:36.070Z,99.90
2018-09-18T05:14:05.204Z,99.90
2018-09-18T05:16:34.355Z,99.90
2018-09-18T05:19:03.146Z,99.90
2018-09-18T05:21:31.948Z,99.90
2018-09-18T05:24:00.796Z,99.90
2018-09-18T05:26:29.559Z,99.90
2018-09-18T05:28:59.314Z,99.90
2018-09-18T05:31:28.105Z,99.90
2018-09-18T05:33:57.168Z,99.90
2018-09-18T05:36:25.931Z,99.90
2018-09-18T05:38:54.789Z,99.90
2018-09-18T05:41:23.575Z,99.90
2018-09-18T05:43:52.374Z,99.90
2018-09-18T05:46:21.184Z,99.90
2018-09-18T05:48:50.111Z,99.90
2018-09-18T05:51:18.936Z,99.90
2018-09-18T05:53:47.764Z,99.90
2018-09-18T05:56:16.589Z,99.90
2018-09-18T05:58:45.477Z,99.90
2018-09-18T06:01:14.335Z,99.90
2018-09-18T06:03:43.136Z,99.90
2018-09-18T06:06:12.182Z,99.90
2018-09-18T06:08:41.491Z,99.90
2018-09-18T06:11:10.393Z,99.90
2018-09-18T06:13:39.406Z,99.90
2018-09-18T06:16:08.214Z,99.90
2018-09-18T06:18:37.131Z,99.90
2018-09-18T06:21:06.012Z,99.90
2018-09-18T06:23:34.825Z,99.90
2018-09-18T06:26:03.666Z,99.90
2018-09-18T06:28:32.404Z,99.90
2018-09-18T06:31:01.220Z,99.90
2018-09-18T06:33:30.014Z,99.90
2018-09-18T06:35:58.823Z,99.90
2018-09-18T06:38:27.707Z,99.90
2018-09-18T06:40:56.460Z,99.90
2018-09-18T06:43:25.256Z,99.90
2018-09-18T06:45:54.071Z,99.90
2018-09-18T06:48:22.892Z,99.90
2018-09-18T06:50:52.136Z,99.90
2018-09-18T06:53:21.071Z,99.90
2018-09-18T06:55:49.892Z,99.90
2018-09-18T06:58:18.704Z,99.90
2018-09-18T07:00:47.608Z,99.90
2018-09-18T07:03:17.013Z,99.90
2018-09-18T07:05:46.083Z,99.90
2018-09-18T07:08:15.061Z,99.90
2018-09-18T07:10:46.115Z,99.90
2018-09-18T07:13:14.960Z,99.90
2018-09-18T07:15:43.850Z,99.90
2018-09-18T07:18:12.745Z,99.90
2018-09-18T07:20:41.852Z,99.90
2018-09-18T07:23:10.650Z,99.90
2018-09-18T07:25:39.500Z,99.90
2018-09-18T07:28:08.313Z,99.90
2018-09-18T07:30:37.116Z,99.90
2018-09-18T07:33:05.893Z,99.90
2018-09-18T07:35:34.714Z,99.90
2018-09-18T07:38:03.536Z,99.90
2018-09-18T07:40:32.320Z,99.90
2018-09-18T07:43:01.229Z,99.90
2018-09-18T07:45:30.263Z,99.90
2018-09-18T07:47:59.108Z,99.90
2018-09-18T07:50:27.867Z,99.90
2018-09-18T07:52:56.692Z,99.90
2018-09-18T07:55:25.480Z,99.90
2018-09-18T07:57:54.286Z,99.90
2018-09-18T08:00:23.080Z,99.90
2018-09-18T08:02:51.924Z,99.90
2018-09-18T08:05:20.824Z,99.90
2018-09-18T08:07:49.664Z,99.90
2018-09-18T08:10:18.529Z,99.90
2018-09-18T08:12:47.338Z,99.90
2018-09-18T08:15:16.123Z,99.90
2018-09-18T08:17:44.936Z,99.90
2018-09-18T08:20:13.760Z,99.90
2018-09-18T08:22:43.493Z,99.90
2018-09-18T08:25:12.357Z,99.90
2018-09-18T08:27:41.083Z,99.90
2018-09-18T08:30:09.950Z,99.90
2018-09-18T08:32:38.904Z,99.90
2018-09-18T08:35:07.895Z,99.90
2018-09-18T08:37:36.718Z,99.90
2018-09-18T08:40:05.639Z,99.90
2018-09-18T08:42:34.367Z,99.90
2018-09-18T08:45:03.237Z,99.90
2018-09-18T08:47:32.030Z,99.90
2018-09-18T08:50:00.840Z,99.90
2018-09-18T08:52:29.704Z,99.90
2018-09-18T08:54:58.435Z,99.90
2018-09-18T08:57:27.343Z,99.90
2018-09-18T08:59:56.116Z,99.90
2018-09-18T09:02:25.031Z,99.90
2018-09-18T09:04:53.846Z,99.90
2018-09-18T09:07:22.663Z,99.90
2018-09-18T09:09:51.476Z,99.90
2018-09-18T09:12:20.272Z,99.90
2018-09-18T09:14:49.183Z,99.90
2018-09-18T09:17:17.870Z,99.90
2018-09-18T09:19:46.681Z,99.90
2018-09-18T09:22:15.562Z,99.90
2018-09-18T09:24:44.422Z,99.90
2018-09-18T09:27:13.246Z,99.90
2018-09-18T09:29:42.278Z,99.90
2018-09-18T09:32:11.061Z,99.00
2018-09-18T09:34:39.791Z,99.10
2018-09-18T09:37:08.636Z,97.80
2018-09-18T09:39:37.392Z,94.60
2018-09-18T09:42:06.451Z,96.70
2018-09-18T09:44:35.247Z,95.40
2018-09-18T09:47:04.033Z,93.00
2018-09-18T09:49:32.821Z,95.70
2018-09-18T09:52:01.623Z,90.70
2018-09-18T09:54:30.501Z,91.00
2018-09-18T09:56:59.465Z,92.00
2018-09-18T09:59:28.625Z,91.60
2018-09-18T10:02:02.703Z,89.50
2018-09-18T10:04:31.586Z,88.90
2018-09-18T10:07:00.388Z,88.10
2018-09-18T10:09:29.205Z,89.70
2018-09-18T10:11:58.016Z,89.30
2018-09-18T10:14:26.895Z,90.00
2018-09-18T10:16:55.778Z,89.90
2018-09-18T10:19:24.595Z,92.10
2018-09-18T10:21:53.393Z,92.90
2018-09-18T10:24:22.228Z,92.00
2018-09-18T10:26:51.227Z,91.10
2018-09-18T10:29:20.008Z,90.70
2018-09-18T10:31:48.794Z,90.60
2018-09-18T10:34:17.584Z,90.90
2018-09-18T10:36:46.432Z,90.90
2018-09-18T10:39:15.368Z,91.20
2018-09-18T10:41:44.285Z,91.20
2018-09-18T10:44:13.129Z,91.90
2018-09-18T10:46:41.927Z,90.00
2018-09-18T10:49:10.888Z,90.20
2018-09-18T10:51:39.683Z,90.20
2018-09-18T10:54:08.495Z,90.30
2018-09-18T10:56:37.596Z,89.70
2018-09-18T10:59:06.416Z,87.10
2018-09-18T11:01:35.639Z,86.60
2018-09-18T11:04:05.564Z,85.90
2018-09-18T11:06:34.637Z,83.60
2018-09-18T11:09:11.220Z,82.00
2018-09-18T11:12:09.652Z,83.00
2018-09-18T11:14:38.748Z,83.60
2018-09-18T11:17:07.560Z,85.10
2018-09-18T11:19:37.897Z,84.30
2018-09-18T11:22:06.723Z,83.40
2018-09-18T11:24:35.596Z,84.00
2018-09-18T11:27:04.935Z,84.10
2018-09-18T11:29:35.197Z,83.00
2018-09-18T11:32:03.971Z,83.50
2018-09-18T11:34:32.907Z,83.10
2018-09-18T11:37:01.829Z,82.90
2018-09-18T11:39:30.796Z,84.60
2018-09-18T11:41:59.616Z,81.00
2018-09-18T11:44:28.498Z,79.50
2018-09-18T11:46:57.568Z,79.50
2018-09-18T11:49:27.147Z,75.60
2018-09-18T11:51:55.992Z,70.80
2018-09-18T11:54:24.831Z,73.90
2018-09-18T11:56:54.079Z,70.50
2018-09-18T11:59:23.052Z,69.40
2018-09-18T12:01:51.884Z,69.40
2018-09-18T12:04:20.920Z,70.10
2018-09-18T12:06:50.479Z,72.10
2018-09-18T12:09:19.389Z,74.50
2018-09-18T12:11:48.774Z,70.90
2018-09-18T12:14:17.643Z,68.60
2018-09-18T12:16:46.495Z,69.10
2018-09-18T12:19:15.447Z,67.20
2018-09-18T12:21:44.409Z,66.90
2018-09-18T12:24:13.831Z,70.60
2018-09-18T12:26:42.796Z,69.60
2018-09-18T12:29:11.601Z,65.00
2018-09-18T12:31:40.581Z,65.30
2018-09-18T12:34:11.926Z,67.70
2018-09-18T12:36:41.212Z,66.30
2018-09-18T12:39:10.516Z,63.70
2018-09-18T12:41:39.988Z,61.70
2018-09-18T12:44:08.784Z,61.50
2018-09-18T12:46:39.029Z,60.30
2018-09-18T12:49:08.104Z,60.70
2018-09-18T12:51:36.844Z,59.90
2018-09-18T12:54:05.757Z,59.30
2018-09-18T12:56:34.550Z,59.90
2018-09-18T12:59:03.452Z,60.00
2018-09-18T13:01:32.289Z,60.60
2018-09-18T13:04:01.104Z,61.00
2018-09-18T13:06:30.073Z,61.40
2018-09-18T13:08:58.770Z,59.20
2018-09-18T13:11:27.640Z,59.00
2018-09-18T13:14:02.896Z,58.70
2018-09-18T13:16:32.041Z,58.90
2018-09-18T13:19:01.377Z,60.50
2018-09-18T13:21:55.154Z,61.10
2018-09-18T13:24:24.321Z,61.20
2018-09-18T13:26:53.438Z,62.70
2018-09-18T13:29:22.325Z,63.20
2018-09-18T13:31:51.611Z,64.20
2018-09-18T13:34:20.556Z,63.70
2018-09-18T13:36:55.764Z,63.90
2018-09-18T13:39:24.757Z,63.80
2018-09-18T13:41:53.709Z,64.20
2018-09-18T13:44:22.617Z,65.30
2018-09-18T13:46:51.470Z,64.80
2018-09-18T13:49:20.306Z,66.60
2018-09-18T13:51:49.160Z,68.80
2018-09-18T13:54:17.969Z,69.20
2018-09-18T13:56:46.919Z,67.80
2018-09-18T13:59:15.648Z,65.30
2018-09-18T14:01:44.815Z,65.60
2018-09-18T14:04:13.448Z,65.40
2018-09-18T14:06:42.440Z,62.00
2018-09-18T14:09:12.931Z,62.00
2018-09-18T14:11:43.389Z,60.60
2018-09-18T14:14:12.594Z,60.70
2018-09-18T14:16:41.797Z,62.50
2018-09-18T14:19:10.896Z,60.90
2018-09-18T14:21:39.729Z,60.70
2018-09-18T14:24:08.560Z,60.00
2018-09-18T14:26:37.534Z,60.80
2018-09-18T14:29:06.257Z,57.70
2018-09-18T14:31:35.076Z,57.30
2018-09-18T14:34:04.911Z,57.00
2018-09-18T14:36:33.913Z,58.30
2018-09-18T14:39:02.921Z,58.90
2018-09-18T14:41:36.969Z,60.40
2018-09-18T14:45:09.464Z,60.50
2018-09-18T14:47:38.626Z,61.30
2018-09-18T14:50:07.633Z,62.60
2018-09-18T14:52:36.607Z,63.40
2018-09-18T14:55:07.873Z,62.80
2018-09-18T14:57:37.247Z,61.90
2018-09-18T15:00:08.681Z,62.90
2018-09-18T15:02:37.472Z,64.30
2018-09-18T15:05:06.722Z,64.40
2018-09-18T15:07:35.792Z,64.50
2018-09-18T15:10:04.784Z,64.40
2018-09-18T15:12:33.707Z,67.10
2018-09-18T15:15:08.363Z,68.20
2018-09-18T15:17:37.176Z,67.30
2018-09-18T15:20:08.336Z,67.20
2018-09-18T15:22:37.276Z,64.90
2018-09-18T15:25:06.412Z,65.80
2018-09-18T15:27:36.558Z,66.30
2018-09-18T15:30:06.583Z,67.80
2018-09-18T15:32:35.439Z,66.10
2018-09-18T15:35:05.810Z,64.70
2018-09-18T15:37:34.674Z,65.20
2018-09-18T15:40:08.884Z,65.80
2018-09-18T15:43:00.091Z,68.00
2018-09-18T15:45:48.801Z,68.60
2018-09-18T15:48:22.459Z,68.80
2018-09-18T15:50:51.758Z,70.10
2018-09-18T15:53:38.971Z,70.30
2018-09-18T15:56:17.845Z,69.60
2018-09-18T15:58:46.675Z,69.70
2018-09-18T16:01:15.633Z,69.30
2018-09-18T16:04:00.402Z,70.30
2018-09-18T16:09:20.536Z,69.20
2018-09-18T16:11:49.499Z,67.70
2018-09-18T16:14:18.395Z,65.80
2018-09-18T16:20:03.826Z,64.20
2018-09-18T16:23:02.354Z,64.80
2018-09-18T16:30:00.112Z,68.80
2018-09-18T16:32:36.376Z,71.30
2018-09-18T16:35:05.374Z,72.20
2018-09-18T16:40:43.396Z,69.70
2018-09-18T16:43:12.170Z,69.20
2018-09-18T16:45:41.046Z,70.80
2018-09-18T16:51:21.911Z,74.40
2018-09-18T16:53:50.747Z,75.90
2018-09-18T16:56:19.518Z,78.60
2018-09-18T16:58:48.324Z,79.80
2018-09-18T17:01:17.134Z,79.80
2018-09-18T17:03:46.029Z,79.60
2018-09-18T17:06:15.866Z,78.20
2018-09-18T17:08:44.912Z,78.10
2018-09-18T17:11:13.918Z,75.60
2018-09-18T17:13:42.967Z,77.50
2018-09-18T17:16:13.068Z,75.60
2018-09-18T17:18:42.159Z,74.50
2018-09-18T17:21:10.977Z,74.70
2018-09-18T17:23:40.277Z,75.90
2018-09-18T17:26:11.440Z,76.20
2018-09-18T17:28:40.641Z,77.70
2018-09-18T17:31:09.295Z,79.20
2018-09-18T17:33:38.351Z,78.30
2018-09-18T17:36:07.311Z,79.90
2018-09-18T17:38:36.321Z,82.60
2018-09-18T17:41:05.724Z,85.20
2018-09-18T17:43:34.729Z,83.00
2018-09-18T17:46:03.833Z,84.10
2018-09-18T17:48:32.963Z,86.50
2018-09-18T17:51:03.205Z,84.80
2018-09-18T17:53:42.555Z,85.00
2018-09-18T17:56:11.620Z,84.70
2018-09-18T17:58:43.403Z,80.10
2018-09-18T18:01:14.231Z,78.50
2018-09-18T18:03:47.813Z,76.70
2018-09-18T18:06:30.356Z,76.00
2018-09-18T18:12:32.774Z,76.40
2018-09-18T18:15:02.821Z,75.60
2018-09-18T18:17:33.471Z,76.00
2018-09-18T18:20:03.130Z,73.30
2018-09-18T18:22:32.487Z,73.60
2018-09-18T18:25:02.122Z,78.50
2018-09-18T18:27:32.159Z,84.10
2018-09-18T18:30:02.649Z,90.90
2018-09-18T18:32:32.619Z,91.40
2018-09-18T18:35:02.415Z,93.80
2018-09-18T18:37:33.934Z,95.70
2018-09-18T18:40:04.136Z,95.70
2018-09-18T18:42:36.796Z,99.90
2018-09-18T18:45:06.780Z,99.90
2018-09-18T18:47:40.075Z,99.90
2018-09-18T18:50:09.907Z,99.90
2018-09-18T18:52:40.785Z,99.90
2018-09-18T18:55:10.482Z,99.90
2018-09-18T19:04:05.022Z,99.90
2018-09-18T19:06:48.568Z,99.90
2018-09-18T19:09:31.293Z,99.90
2018-09-18T19:12:14.771Z,99.90
2018-09-18T19:15:02.624Z,99.90
2018-09-18T19:21:03.706Z,99.90
2018-09-18T19:24:16.686Z,99.90
2018-09-18T19:27:00.571Z,99.90
2018-09-18T19:32:40.789Z,99.90
2018-09-18T19:35:42.797Z,99.90
2018-09-18T19:38:27.081Z,99.90
2018-09-18T19:41:21.872Z,99.90
2018-09-18T19:43:56.909Z,99.90
2018-09-18T19:46:30.614Z,99.90
2018-09-18T20:36:23.836Z,99.90
2018-09-18T20:38:58.560Z,99.90
2018-09-18T20:41:36.684Z,99.90
2018-09-18T20:44:05.749Z,99.90
2018-09-18T20:46:35.849Z,99.90
2018-09-18T20:51:34.538Z,99.90
2018-09-18T20:54:03.738Z,99.90
2018-09-18T20:56:32.596Z,99.90
2018-09-18T20:59:01.632Z,99.90
2018-09-18T21:01:30.535Z,99.90
2018-09-18T21:03:59.555Z,99.90
2018-09-18T21:06:29.309Z,99.90
2018-09-18T21:08:59.202Z,99.90
2018-09-18T21:11:28.095Z,99.90
2018-09-18T21:13:56.967Z,99.90
2018-09-18T21:16:25.929Z,99.90
2018-09-18T21:18:54.837Z,99.90
2018-09-18T21:21:23.707Z,99.90
2018-09-18T21:23:52.497Z,99.90
2018-09-18T21:26:21.360Z,99.90
2018-09-18T21:28:50.291Z,99.90
2018-09-18T21:31:19.080Z,99.90
2018-09-18T21:33:47.863Z,99.90
2018-09-18T21:36:16.752Z,99.90
2018-09-18T21:38:45.614Z,99.90
2018-09-18T21:41:14.434Z,99.90
2018-09-18T21:43:43.259Z,99.90
2018-09-18T21:46:12.100Z,99.90
2018-09-18T21:48:41.037Z,99.90
2018-09-18T21:51:10.318Z,99.90
2018-09-18T21:53:39.659Z,99.90
2018-09-18T21:56:08.588Z,99.90
2018-09-18T21:58:37.524Z,99.90
2018-09-18T22:01:06.993Z,99.90
2018-09-18T22:03:36.911Z,99.90
2018-09-18T22:06:06.414Z,99.90
2018-09-18T22:08:37.377Z,99.90
2018-09-18T22:11:07.194Z,99.90
2018-09-18T22:13:36.366Z,99.90
2018-09-18T22:16:07.413Z,99.90
2018-09-18T22:18:36.400Z,99.90
2018-09-18T22:21:05.913Z,99.90
2018-09-18T22:23:34.804Z,99.90
2018-09-18T22:26:03.862Z,99.90
2018-09-18T22:28:32.699Z,99.90
2018-09-18T22:31:01.553Z,99.90
2018-09-18T22:33:30.666Z,99.90
2018-09-18T22:35:59.625Z,99.90
2018-09-18T22:38:29.426Z,99.90
2018-09-18T22:40:58.419Z,99.90
2018-09-18T22:43:27.380Z,99.90
2018-09-18T22:45:56.564Z,99.90
2018-09-18T22:48:25.474Z,99.90
2018-09-18T22:50:54.501Z,99.90
2018-09-18T22:53:25.457Z,99.90
2018-09-18T22:55:54.468Z,99.90
2018-09-18T22:58:23.392Z,99.90
2018-09-18T23:00:52.357Z,99.90
2018-09-18T23:03:21.300Z,99.90
2018-09-18T23:05:50.458Z,99.90
2018-09-18T23:08:19.691Z,99.90
2018-09-18T23:10:48.631Z,99.90
2018-09-18T23:13:17.670Z,99.90
2018-09-18T23:15:46.705Z,99.90
2018-09-18T23:18:15.721Z,99.90
2018-09-18T23:20:44.790Z,99.90
2018-09-18T23:23:13.708Z,99.90
2018-09-18T23:25:42.652Z,99.90
2018-09-18T23:28:11.549Z,99.90
2018-09-18T23:30:40.575Z,99.90
2018-09-18T23:33:09.388Z,99.90
2018-09-18T23:35:38.332Z,99.90
2018-09-18T23:38:07.323Z,99.90
2018-09-18T23:40:36.300Z,99.90
2018-09-18T23:43:05.326Z,99.90
2018-09-18T23:45:34.321Z,99.90
2018-09-18T23:48:03.441Z,99.90
2018-09-18T23:50:32.395Z,99.90
2018-09-18T23:53:01.420Z,99.90
2018-09-18T23:55:30.341Z,99.90
2018-09-18T23:57:59.337Z,99.90
